Skip to main content.
Station Historical Data
 
Daily Summary for November 20, 2017 Units:  Both    English   Metric
« Previous Day
Next Day »
Daily Weekly Monthly Yearly Custom
  Current: High: Low: Average:
Temperature: 51.6 °F /  10.9 °C 51.6 °F /  10.9 °C 35.4 °F /  1.9 °C 39.9 °F /  4.4 °C
Dew Point: 29.8 °F /  -1.2 °C 30.4 °F /  -0.9 °C 25.3 °F /  -3.7 °C 26.8 °F /  -2.9 °C
Humidity: 43 % 68 % 42 % 60 %
Wind Speed: 13.2 mph /  21.2 km/h 18.5 mph /  29.8 km/h - 12.3 mph /  19.8 km/h
Wind Gust: 16.1 mph /  25.9 km/h 24.2 mph /  38.9 km/h - -
Wind:South - - SSW
Pressure: 29.7 in /  1006.0 hPa 29.9 in /  1012.8 hPa 29.7 in /  1006.0 hPa -
Precipitation: 0 in /  0.0 mm      
Historical Graphs
 
 
Tabular Data for November 20, 2017
Time Temperature Dew Point Pressure Wind Wind Speed Wind Gust Humidity Rainfall Rate (Hourly) solar Conditions
00:02 40.1 °F /  4.5 °C 26.4 °F /  -3.1 °C 29.9 in /  1012.8 hPa SSW 11.6 mph /  18.7 km/h 15 mph /  24.1 km/h 58 % 0 in /  0.0 mm 0.0 W/m2 FEW
00:07 40.3 °F /  4.6 °C 26.6 °F /  -3.0 °C 29.9 in /  1012.4 hPa SSW 11.7 mph /  18.8 km/h 14 mph /  22.5 km/h 58 % 0 in /  0.0 mm 0.0 W/m2 FEW
00:12 40.3 °F /  4.6 °C 26.6 °F /  -3.0 °C 29.9 in /  1012.4 hPa SSW 12.1 mph /  19.5 km/h 16.1 mph /  25.9 km/h 58 % 0 in /  0.0 mm 0.0 W/m2 FEW
00:17 40.3 °F /  4.6 °C 26.6 °F /  -3.0 °C 29.9 in /  1012.4 hPa SSW 10.3 mph /  16.6 km/h 13.8 mph /  22.2 km/h 58 % 0 in /  0.0 mm 0.0 W/m2 FEW
00:22 40.1 °F /  4.5 °C 26.4 °F /  -3.1 °C 29.9 in /  1012.4 hPa SSW 10.6 mph /  17.1 km/h 12.7 mph /  20.4 km/h 58 % 0 in /  0.0 mm 0.0 W/m2 FEW
00:28 39.9 °F /  4.4 °C 26.4 °F /  -3.1 °C 29.9 in /  1012.1 hPa South 10.4 mph /  16.7 km/h 11.5 mph /  18.5 km/h 58 % 0 in /  0.0 mm 0.0 W/m2 FEW
00:33 39.7 °F /  4.3 °C 26.4 °F /  -3.1 °C 29.9 in /  1012.1 hPa SW 9.8 mph /  15.8 km/h 11.5 mph /  18.5 km/h 59 % 0 in /  0.0 mm 0.0 W/m2 FEW
00:38 39.7 °F /  4.3 °C 26.6 °F /  -3.0 °C 29.9 in /  1012.1 hPa SSW 10.2 mph /  16.4 km/h 13 mph /  20.9 km/h 59 % 0 in /  0.0 mm 0.0 W/m2 FEW
00:48 40.3 °F /  4.6 °C 26.6 °F /  -3.0 °C 29.9 in /  1012.1 hPa SSW 7.7 mph /  12.4 km/h 11.5 mph /  18.5 km/h 58 % 0 in /  0.0 mm 0.0 W/m2 FEW
00:58 39.6 °F /  4.2 °C 25.9 °F /  -3.4 °C 29.9 in /  1011.7 hPa SSW 8.4 mph /  13.5 km/h 9.2 mph /  14.8 km/h 58 % 0 in /  0.0 mm 0.0 W/m2 FEW
01:03 39.2 °F /  4.0 °C 26.1 °F /  -3.3 °C 29.9 in /  1011.7 hPa SSW 9 mph /  14.5 km/h 11.5 mph /  18.5 km/h 59 % 0 in /  0.0 mm 0.0 W/m2 FEW
01:08 38.8 °F /  3.8 °C 26.2 °F /  -3.2 °C 29.9 in /  1011.7 hPa SSW 9.3 mph /  15.0 km/h 10.4 mph /  16.7 km/h 60 % 0 in /  0.0 mm 0.0 W/m2 FEW
01:18 38.8 °F /  3.8 °C 26.4 °F /  -3.1 °C 29.9 in /  1011.4 hPa SSW 11.4 mph /  18.3 km/h 13.8 mph /  22.2 km/h 61 % 0 in /  0.0 mm 0.0 W/m2 FEW
01:23 38.8 °F /  3.8 °C 26.6 °F /  -3.0 °C 29.9 in /  1011.4 hPa SSW 11.5 mph /  18.5 km/h 12.7 mph /  20.4 km/h 61 % 0 in /  0.0 mm 0.0 W/m2 FEW
01:28 39.4 °F /  4.1 °C 26.8 °F /  -2.9 °C 29.9 in /  1011.4 hPa SSW 11.3 mph /  18.2 km/h 15 mph /  24.1 km/h 60 % 0 in /  0.0 mm 0.0 W/m2 FEW
01:33 39.6 °F /  4.2 °C 26.8 °F /  -2.9 °C 29.9 in /  1011.1 hPa SSW 10.5 mph /  16.9 km/h 13.8 mph /  22.2 km/h 60 % 0 in /  0.0 mm 0.0 W/m2 FEW
01:38 39.6 °F /  4.2 °C 26.8 °F /  -2.9 °C 29.9 in /  1011.1 hPa SSW 10.9 mph /  17.5 km/h 14 mph /  22.5 km/h 60 % 0 in /  0.0 mm 0.0 W/m2 FEW
01:43 39.6 °F /  4.2 °C 26.8 °F /  -2.9 °C 29.9 in /  1011.1 hPa SSW 11.2 mph /  18.0 km/h 16 mph /  25.7 km/h 60 % 0 in /  0.0 mm 0.0 W/m2 FEW
01:48 39.6 °F /  4.2 °C 26.8 °F /  -2.9 °C 29.9 in /  1011.1 hPa SW 10.9 mph /  17.5 km/h 13.8 mph /  22.2 km/h 60 % 0 in /  0.0 mm 0.0 W/m2 FEW
01:58 39.4 °F /  4.1 °C 26.8 °F /  -2.9 °C 29.9 in /  1011.1 hPa SSW 11.9 mph /  19.1 km/h 15 mph /  24.1 km/h 60 % 0 in /  0.0 mm 0.0 W/m2 FEW
02:03 39.4 °F /  4.1 °C 26.6 °F /  -3.0 °C 29.9 in /  1011.1 hPa SSW 11.5 mph /  18.5 km/h 13.8 mph /  22.2 km/h 60 % 0 in /  0.0 mm 0.0 W/m2 FEW
02:08 39 °F /  3.9 °C 26.4 °F /  -3.1 °C 29.9 in /  1011.1 hPa SSW 11.9 mph /  19.1 km/h 15 mph /  24.1 km/h 60 % 0 in /  0.0 mm 0.0 W/m2 FEW
02:13 38.8 °F /  3.8 °C 26.6 °F /  -3.0 °C 29.9 in /  1011.1 hPa SSW 9.3 mph /  15.0 km/h 12.7 mph /  20.4 km/h 61 % 0 in /  0.0 mm 0.0 W/m2 FEW
02:18 39 °F /  3.9 °C 26.4 °F /  -3.1 °C 29.9 in /  1011.1 hPa SSW 11 mph /  17.7 km/h 13.8 mph /  22.2 km/h 60 % 0 in /  0.0 mm 0.0 W/m2 FEW
02:28 39.6 °F /  4.2 °C 26.2 °F /  -3.2 °C 29.8 in /  1010.7 hPa SSW 11.7 mph /  18.8 km/h 15 mph /  24.1 km/h 59 % 0 in /  0.0 mm 0.0 W/m2 FEW
02:33 39.6 °F /  4.2 °C 26.2 °F /  -3.2 °C 29.8 in /  1010.7 hPa SSW 11.4 mph /  18.3 km/h 13.8 mph /  22.2 km/h 59 % 0 in /  0.0 mm 0.0 W/m2 FEW
02:38 39.4 °F /  4.1 °C 26.2 °F /  -3.2 °C 29.8 in /  1010.7 hPa SSW 10.8 mph /  17.4 km/h 12.7 mph /  20.4 km/h 59 % 0 in /  0.0 mm 0.0 W/m2 FEW
02:43 39 °F /  3.9 °C 26.2 °F /  -3.2 °C 29.8 in /  1010.7 hPa SSW 9.7 mph /  15.6 km/h 13.8 mph /  22.2 km/h 60 % 0 in /  0.0 mm 0.0 W/m2 FEW
02:48 39 °F /  3.9 °C 26.4 °F /  -3.1 °C 29.8 in /  1010.4 hPa SSW 11.6 mph /  18.7 km/h 15 mph /  24.1 km/h 60 % 0 in /  0.0 mm 0.0 W/m2 FEW
02:53 39 °F /  3.9 °C 26.4 °F /  -3.1 °C 29.8 in /  1010.4 hPa SSW 11 mph /  17.7 km/h 13.8 mph /  22.2 km/h 60 % 0 in /  0.0 mm 0.0 W/m2 FEW
02:58 38.8 °F /  3.8 °C 26.6 °F /  -3.0 °C 29.8 in /  1010.4 hPa SSW 12.1 mph /  19.5 km/h 15 mph /  24.1 km/h 61 % 0 in /  0.0 mm 0.0 W/m2 FEW
03:08 38.7 °F /  3.7 °C 26.2 °F /  -3.2 °C 29.8 in /  1010.4 hPa SSW 12.3 mph /  19.8 km/h 13.8 mph /  22.2 km/h 61 % 0 in /  0.0 mm 0.0 W/m2 FEW
03:13 38.7 °F /  3.7 °C 26.8 °F /  -2.9 °C 29.8 in /  1010.4 hPa SSW 10.8 mph /  17.4 km/h 16.1 mph /  25.9 km/h 62 % 0 in /  0.0 mm 0.0 W/m2 FEW
03:18 38.7 °F /  3.7 °C 26.2 °F /  -3.2 °C 29.8 in /  1010.4 hPa SSW 11.4 mph /  18.3 km/h 13 mph /  20.9 km/h 61 % 0 in /  0.0 mm 0.0 W/m2 FEW
03:23 38.7 °F /  3.7 °C 26.4 °F /  -3.1 °C 29.8 in /  1010.4 hPa SW 10.3 mph /  16.6 km/h 13.8 mph /  22.2 km/h 61 % 0 in /  0.0 mm 0.0 W/m2 FEW
03:28 38.7 °F /  3.7 °C 26.4 °F /  -3.1 °C 29.8 in /  1010.4 hPa SSW 10.7 mph /  17.2 km/h 13.8 mph /  22.2 km/h 61 % 0 in /  0.0 mm 0.0 W/m2 FEW
03:33 38.7 °F /  3.7 °C 26.2 °F /  -3.2 °C 29.8 in /  1010.0 hPa SSW 11.1 mph /  17.9 km/h 12.7 mph /  20.4 km/h 61 % 0 in /  0.0 mm 0.0 W/m2 FEW
03:38 38.7 °F /  3.7 °C 26.8 °F /  -2.9 °C 29.8 in /  1010.0 hPa SSW 11 mph /  17.7 km/h 15 mph /  24.1 km/h 62 % 0 in /  0.0 mm 0.0 W/m2 FEW
03:48 38.8 °F /  3.8 °C 26.4 °F /  -3.1 °C 29.8 in /  1010.0 hPa SSW 12.8 mph /  20.6 km/h 16.1 mph /  25.9 km/h 61 % 0 in /  0.0 mm 0.0 W/m2 FEW
03:53 38.7 °F /  3.7 °C 26.8 °F /  -2.9 °C 29.8 in /  1010.0 hPa SSW 12.6 mph /  20.3 km/h 16.1 mph /  25.9 km/h 62 % 0 in /  0.0 mm 0.0 W/m2 FEW
04:03 38.3 °F /  3.5 °C 26.4 °F /  -3.1 °C 29.8 in /  1010.0 hPa SSW 13.2 mph /  21.2 km/h 16.1 mph /  25.9 km/h 62 % 0 in /  0.0 mm 0.0 W/m2 FEW
04:13 38.3 °F /  3.5 °C 26.4 °F /  -3.1 °C 29.8 in /  1010.0 hPa SSW 11.7 mph /  18.8 km/h 15 mph /  24.1 km/h 62 % 0 in /  0.0 mm 0.0 W/m2 FEW
04:18 37.9 °F /  3.3 °C 26.1 °F /  -3.3 °C 29.8 in /  1009.7 hPa SSW 12.7 mph /  20.4 km/h 14 mph /  22.5 km/h 62 % 0 in /  0.0 mm 0.0 W/m2 FEW
04:28 37.8 °F /  3.2 °C 26.2 °F /  -3.2 °C 29.8 in /  1010.0 hPa SW 10.8 mph /  17.4 km/h 15 mph /  24.1 km/h 63 % 0 in /  0.0 mm 0.0 W/m2 FEW
04:33 37.2 °F /  2.9 °C 26.2 °F /  -3.2 °C 29.8 in /  1009.7 hPa SSW 9.2 mph /  14.8 km/h 11.5 mph /  18.5 km/h 64 % 0 in /  0.0 mm 0.0 W/m2 FEW
04:38 37 °F /  2.8 °C 25.9 °F /  -3.4 °C 29.8 in /  1009.7 hPa SSW 10 mph /  16.1 km/h 14 mph /  22.5 km/h 64 % 0 in /  0.0 mm 0.0 W/m2 FEW
04:43 36.7 °F /  2.6 °C 26.1 °F /  -3.3 °C 29.8 in /  1009.7 hPa SW 10.7 mph /  17.2 km/h 13.8 mph /  22.2 km/h 65 % 0 in /  0.0 mm 0.0 W/m2 FEW
04:48 36.3 °F /  2.4 °C 26.1 °F /  -3.3 °C 29.8 in /  1009.7 hPa SSW 10.7 mph /  17.2 km/h 11.5 mph /  18.5 km/h 66 % 0 in /  0.0 mm 0.0 W/m2 FEW
04:53 36.1 °F /  2.3 °C 25.9 °F /  -3.4 °C 29.8 in /  1009.7 hPa SSW 10.9 mph /  17.5 km/h 13.8 mph /  22.2 km/h 66 % 0 in /  0.0 mm 0.0 W/m2 FEW
04:58 36.1 °F /  2.3 °C 26.2 °F /  -3.2 °C 29.8 in /  1009.4 hPa SSW 13 mph /  20.9 km/h 17.3 mph /  27.8 km/h 67 % 0 in /  0.0 mm 0.0 W/m2 FEW
05:03 36.1 °F /  2.3 °C 26.2 °F /  -3.2 °C 29.8 in /  1009.7 hPa SSW 10.1 mph /  16.3 km/h 13 mph /  20.9 km/h 67 % 0 in /  0.0 mm 0.0 W/m2 FEW
05:08 36.3 °F /  2.4 °C 26.4 °F /  -3.1 °C 29.8 in /  1009.4 hPa SW 11.8 mph /  19.0 km/h 13.8 mph /  22.2 km/h 67 % 0 in /  0.0 mm 0.0 W/m2 FEW
05:13 36.3 °F /  2.4 °C 26.1 °F /  -3.3 °C 29.8 in /  1009.4 hPa SSW 9.9 mph /  15.9 km/h 12.7 mph /  20.4 km/h 66 % 0 in /  0.0 mm 0.0 W/m2 FEW
05:18 36.1 °F /  2.3 °C 26.2 °F /  -3.2 °C 29.8 in /  1009.4 hPa SSW 11.6 mph /  18.7 km/h 15 mph /  24.1 km/h 67 % 0 in /  0.0 mm 0.0 W/m2 FEW
05:23 36.1 °F /  2.3 °C 26.2 °F /  -3.2 °C 29.8 in /  1009.4 hPa SSW 11.4 mph /  18.3 km/h 15 mph /  24.1 km/h 67 % 0 in /  0.0 mm 0.0 W/m2 FEW
05:28 36 °F /  2.2 °C 26.1 °F /  -3.3 °C 29.8 in /  1009.0 hPa SSW 11.1 mph /  17.9 km/h 16.1 mph /  25.9 km/h 67 % 0 in /  0.0 mm 0.0 W/m2 FEW
05:38 35.8 °F /  2.1 °C 25.9 °F /  -3.4 °C 29.8 in /  1009.0 hPa SSW 11.6 mph /  18.7 km/h 12.7 mph /  20.4 km/h 67 % 0 in /  0.0 mm 0.0 W/m2 FEW
05:43 35.8 °F /  2.1 °C 26.2 °F /  -3.2 °C 29.8 in /  1009.0 hPa SSW 11.8 mph /  19.0 km/h 13.8 mph /  22.2 km/h 68 % 0 in /  0.0 mm 0.0 W/m2 FEW
05:48 35.8 °F /  2.1 °C 25.9 °F /  -3.4 °C 29.8 in /  1008.7 hPa SSW 11 mph /  17.7 km/h 13.8 mph /  22.2 km/h 67 % 0 in /  0.0 mm 0.0 W/m2 FEW
05:53 36.1 °F /  2.3 °C 25.9 °F /  -3.4 °C 29.8 in /  1008.7 hPa SSW 11.9 mph /  19.1 km/h 14 mph /  22.5 km/h 66 % 0 in /  0.0 mm 0.0 W/m2 FEW
05:58 36.7 °F /  2.6 °C 26.1 °F /  -3.3 °C 29.8 in /  1008.7 hPa SSW 11.1 mph /  17.9 km/h 15 mph /  24.1 km/h 65 % 0 in /  0.0 mm 0.0 W/m2 FEW
05:59 36.7 °F /  2.6 °C 26.1 °F /  -3.3 °C 29.8 in /  1008.7 hPa SSW 10.9 mph /  17.5 km/h 15 mph /  24.1 km/h 65 % 0 in /  0.0 mm 0.0 W/m2 FEW
06:04 36.9 °F /  2.7 °C 26.1 °F /  -3.3 °C 29.8 in /  1008.7 hPa South 11.6 mph /  18.7 km/h 13.8 mph /  22.2 km/h 65 % 0 in /  0.0 mm 0.0 W/m2 FEW
06:09 37 °F /  2.8 °C 25.9 °F /  -3.4 °C 29.8 in /  1008.7 hPa SSW 12.4 mph /  20.0 km/h 17 mph /  27.4 km/h 64 % 0 in /  0.0 mm 0.0 W/m2 FEW
06:14 37 °F /  2.8 °C 25.9 °F /  -3.4 °C 29.8 in /  1008.7 hPa SSW 11.1 mph /  17.9 km/h 13.8 mph /  22.2 km/h 64 % 0 in /  0.0 mm 0.0 W/m2 FEW
06:19 36.7 °F /  2.6 °C 26.1 °F /  -3.3 °C 29.8 in /  1008.7 hPa SSW 11.4 mph /  18.3 km/h 13.8 mph /  22.2 km/h 65 % 0 in /  0.0 mm 0.0 W/m2 FEW
06:24 36.5 °F /  2.5 °C 25.9 °F /  -3.4 °C 29.8 in /  1008.7 hPa SSW 11 mph /  17.7 km/h 13.8 mph /  22.2 km/h 65 % 0 in /  0.0 mm 0.0 W/m2 FEW
06:34 36.3 °F /  2.4 °C 26.1 °F /  -3.3 °C 29.8 in /  1008.7 hPa SW 11.6 mph /  18.7 km/h 15 mph /  24.1 km/h 66 % 0 in /  0.0 mm 0.0 W/m2 FEW
06:39 36.5 °F /  2.5 °C 25.9 °F /  -3.4 °C 29.8 in /  1008.7 hPa SSW 11.2 mph /  18.0 km/h 13.8 mph /  22.2 km/h 65 % 0 in /  0.0 mm 0.0 W/m2 FEW
06:44 36.3 °F /  2.4 °C 26.1 °F /  -3.3 °C 29.8 in /  1008.7 hPa SSW 12.1 mph /  19.5 km/h 15 mph /  24.1 km/h 66 % 0 in /  0.0 mm 0.0 W/m2 FEW
06:49 36.1 °F /  2.3 °C 25.9 °F /  -3.4 °C 29.8 in /  1008.4 hPa SSW 10.6 mph /  17.1 km/h 15 mph /  24.1 km/h 66 % 0 in /  0.0 mm 0.0 W/m2 FEW
06:54 36.1 °F /  2.3 °C 25.9 °F /  -3.4 °C 29.8 in /  1008.4 hPa SSW 12.1 mph /  19.5 km/h 14 mph /  22.5 km/h 66 % 0 in /  0.0 mm 0.0 W/m2 FEW
06:55 36.1 °F /  2.3 °C 25.5 °F /  -3.6 °C 29.8 in /  1008.4 hPa SSW 12.1 mph /  19.5 km/h 13.8 mph /  22.2 km/h 65 % 0 in /  0.0 mm 0.0 W/m2 FEW
07:00 36.1 °F /  2.3 °C 25.5 °F /  -3.6 °C 29.8 in /  1008.4 hPa SSW 11.7 mph /  18.8 km/h 16.1 mph /  25.9 km/h 65 % 0 in /  0.0 mm 0.0 W/m2 FEW
07:11 35.8 °F /  2.1 °C 25.3 °F /  -3.7 °C 29.8 in /  1008.4 hPa SW 12.8 mph /  20.6 km/h 13.8 mph /  22.2 km/h 66 % 0 in /  0.0 mm 0.0 W/m2 FEW
07:16 35.6 °F /  2.0 °C 25.7 °F /  -3.5 °C 29.8 in /  1008.4 hPa SSW 11 mph /  17.7 km/h 15 mph /  24.1 km/h 67 % 0 in /  0.0 mm 0.0 W/m2 FEW
07:21 35.4 °F /  1.9 °C 25.5 °F /  -3.6 °C 29.8 in /  1008.4 hPa SSW 13.5 mph /  21.7 km/h 17.3 mph /  27.8 km/h 67 % 0 in /  0.0 mm 5.0 W/m2 FEW
07:26 35.4 °F /  1.9 °C 25.5 °F /  -3.6 °C 29.8 in /  1008.0 hPa SSW 12 mph /  19.3 km/h 14 mph /  22.5 km/h 67 % 0 in /  0.0 mm 7.0 W/m2 FEW
07:31 35.4 °F /  1.9 °C 25.5 °F /  -3.6 °C 29.8 in /  1008.0 hPa SSW 13.3 mph /  21.4 km/h 17.3 mph /  27.8 km/h 67 % 0 in /  0.0 mm 11.0 W/m2 FEW
07:36 35.8 °F /  2.1 °C 25.3 °F /  -3.7 °C 29.8 in /  1008.0 hPa SSW 13.5 mph /  21.7 km/h 18.4 mph /  29.6 km/h 66 % 0 in /  0.0 mm 12.0 W/m2 FEW
07:41 36 °F /  2.2 °C 25.5 °F /  -3.6 °C 29.8 in /  1008.0 hPa SSW 13.1 mph /  21.1 km/h 17.3 mph /  27.8 km/h 66 % 0 in /  0.0 mm 16.0 W/m2 FEW
07:51 36.7 °F /  2.6 °C 25.9 °F /  -3.4 °C 29.8 in /  1008.0 hPa SSW 16.8 mph /  27.0 km/h 20.7 mph /  33.3 km/h 65 % 0 in /  0.0 mm 26.0 W/m2 FEW
08:01 37 °F /  2.8 °C 25.9 °F /  -3.4 °C 29.8 in /  1008.0 hPa SW 15.4 mph /  24.8 km/h 19.6 mph /  31.5 km/h 64 % 0 in /  0.0 mm 49.0 W/m2 FEW
08:06 37.4 °F /  3.0 °C 26.2 °F /  -3.2 °C 29.8 in /  1008.0 hPa SSW 15.6 mph /  25.1 km/h 18.4 mph /  29.6 km/h 64 % 0 in /  0.0 mm 63.0 W/m2 FEW
08:11 37.8 °F /  3.2 °C 26.2 °F /  -3.2 °C 29.8 in /  1007.7 hPa South 12.4 mph /  20.0 km/h 18.4 mph /  29.6 km/h 63 % 0 in /  0.0 mm 76.0 W/m2 FEW
08:16 38.1 °F /  3.4 °C 26.2 °F /  -3.2 °C 29.8 in /  1008.0 hPa SSW 15.1 mph /  24.3 km/h 19.6 mph /  31.5 km/h 62 % 0 in /  0.0 mm 83.0 W/m2 FEW
08:21 38.7 °F /  3.7 °C 26.2 °F /  -3.2 °C 29.8 in /  1007.7 hPa SSW 16 mph /  25.7 km/h 19.6 mph /  31.5 km/h 61 % 0 in /  0.0 mm 102.0 W/m2 FEW
08:26 39 °F /  3.9 °C 26.8 °F /  -2.9 °C 29.8 in /  1007.7 hPa SSW 14.8 mph /  23.8 km/h 19.6 mph /  31.5 km/h 61 % 0 in /  0.0 mm 114.0 W/m2 FEW
08:36 39.9 °F /  4.4 °C 26.8 °F /  -2.9 °C 29.8 in /  1007.7 hPa SSW 15.9 mph /  25.6 km/h 19.6 mph /  31.5 km/h 59 % 0 in /  0.0 mm 149.0 W/m2 FEW
08:41 40.3 °F /  4.6 °C 26.8 °F /  -2.9 °C 29.8 in /  1007.7 hPa SW 14.7 mph /  23.7 km/h 18.4 mph /  29.6 km/h 58 % 0 in /  0.0 mm 167.0 W/m2 FEW
08:46 40.6 °F /  4.8 °C 27.1 °F /  -2.7 °C 29.8 in /  1008.0 hPa SSW 15.3 mph /  24.6 km/h 20 mph /  32.2 km/h 58 % 0 in /  0.0 mm 178.0 W/m2 FEW
08:51 40.8 °F /  4.9 °C 27.1 °F /  -2.7 °C 29.8 in /  1008.0 hPa SSW 15.9 mph /  25.6 km/h 20.7 mph /  33.3 km/h 58 % 0 in /  0.0 mm 200.0 W/m2 FEW
08:56 41.2 °F /  5.1 °C 27.1 °F /  -2.7 °C 29.8 in /  1008.0 hPa SSW 13.4 mph /  21.6 km/h 17.3 mph /  27.8 km/h 57 % 0 in /  0.0 mm 216.0 W/m2 FEW
09:06 41.7 °F /  5.4 °C 27.1 °F /  -2.7 °C 29.8 in /  1008.0 hPa SSW 13.5 mph /  21.7 km/h 18.4 mph /  29.6 km/h 56 % 0 in /  0.0 mm 248.0 W/m2 FEW
09:11 42.3 °F /  5.7 °C 27.1 °F /  -2.7 °C 29.8 in /  1007.7 hPa SSW 11 mph /  17.7 km/h 11.5 mph /  18.5 km/h 55 % 0 in /  0.0 mm 246.0 W/m2 FEW
09:16 42.4 °F /  5.8 °C 27.5 °F /  -2.5 °C 29.8 in /  1007.7 hPa SSW 11.9 mph /  19.1 km/h 18 mph /  29.0 km/h 55 % 0 in /  0.0 mm 260.0 W/m2 FEW
09:21 43 °F /  6.1 °C 27.9 °F /  -2.3 °C 29.8 in /  1007.7 hPa SW 15.4 mph /  24.8 km/h 18.4 mph /  29.6 km/h 55 % 0 in /  0.0 mm 265.0 W/m2 FEW
09:32 43.9 °F /  6.6 °C 28.2 °F /  -2.1 °C 29.8 in /  1007.7 hPa SW 14 mph /  22.5 km/h 19.6 mph /  31.5 km/h 54 % 0 in /  0.0 mm 223.0 W/m2 FEW
09:37 44.1 °F /  6.7 °C 28 °F /  -2.2 °C 29.8 in /  1007.7 hPa SSW 13.3 mph /  21.4 km/h 17 mph /  27.4 km/h 53 % 0 in /  0.0 mm 295.0 W/m2 FEW
09:47 45 °F /  7.2 °C 28.4 °F /  -2.0 °C 29.7 in /  1007.3 hPa SW 15.1 mph /  24.3 km/h 19.6 mph /  31.5 km/h 52 % 0 in /  0.0 mm 339.0 W/m2 FEW
09:52 45.5 °F /  7.5 °C 28.4 °F /  -2.0 °C 29.7 in /  1007.3 hPa SSW 14.2 mph /  22.8 km/h 16.1 mph /  25.9 km/h 51 % 0 in /  0.0 mm 353.0 W/m2 FEW
10:02 46.2 °F /  7.9 °C 28.8 °F /  -1.8 °C 29.7 in /  1007.0 hPa SSW 17.4 mph /  28.0 km/h 20.7 mph /  33.3 km/h 50 % 0 in /  0.0 mm 373.0 W/m2 FEW
10:07 46.4 °F /  8.0 °C 28.2 °F /  -2.1 °C 29.7 in /  1007.0 hPa South 18.5 mph /  29.8 km/h 24.2 mph /  38.9 km/h 49 % 0 in /  0.0 mm 383.0 W/m2 FEW
10:12 46.8 °F /  8.2 °C 28.9 °F /  -1.7 °C 29.7 in /  1007.0 hPa SW 15.3 mph /  24.6 km/h 19.6 mph /  31.5 km/h 50 % 0 in /  0.0 mm 392.0 W/m2 FEW
10:17 47.5 °F /  8.6 °C 28.2 °F /  -2.1 °C 29.7 in /  1006.7 hPa SSW 17.8 mph /  28.6 km/h 20 mph /  32.2 km/h 47 % 0 in /  0.0 mm 404.0 W/m2 FEW
10:22 47.8 °F /  8.8 °C 28.6 °F /  -1.9 °C 29.7 in /  1006.7 hPa SSW 17.2 mph /  27.7 km/h 20.7 mph /  33.3 km/h 47 % 0 in /  0.0 mm 417.0 W/m2 FEW
10:27 48 °F /  8.9 °C 28.8 °F /  -1.8 °C 29.7 in /  1006.7 hPa SSW 15.8 mph /  25.4 km/h 18.4 mph /  29.6 km/h 47 % 0 in /  0.0 mm 427.0 W/m2 FEW
10:37 49.3 °F /  9.6 °C 28.8 °F /  -1.8 °C 29.7 in /  1006.7 hPa SSW 12.5 mph /  20.1 km/h 19 mph /  30.6 km/h 45 % 0 in /  0.0 mm 454.0 W/m2 FEW
10:42 49.6 °F /  9.8 °C 29.1 °F /  -1.6 °C 29.7 in /  1006.7 hPa SSW 16.4 mph /  26.4 km/h 19.6 mph /  31.5 km/h 45 % 0 in /  0.0 mm 468.0 W/m2 FEW
10:47 50.2 °F /  10.1 °C 29.7 °F /  -1.3 °C 29.7 in /  1006.7 hPa SSW 14.9 mph /  24.0 km/h 19.6 mph /  31.5 km/h 45 % 0 in /  0.0 mm 494.0 W/m2 FEW
10:52 50.7 °F /  10.4 °C 29.7 °F /  -1.3 °C 29.7 in /  1006.7 hPa SW 13.6 mph /  21.9 km/h 17.3 mph /  27.8 km/h 44 % 0 in /  0.0 mm 531.0 W/m2 FEW
10:57 50.9 °F /  10.5 °C 28.6 °F /  -1.9 °C 29.7 in /  1006.7 hPa SSW 14.3 mph /  23.0 km/h 19.6 mph /  31.5 km/h 42 % 0 in /  0.0 mm 571.0 W/m2 FEW
11:02 51.4 °F /  10.8 °C 30.4 °F /  -0.9 °C 29.7 in /  1006.7 hPa SW 13.9 mph /  22.4 km/h 17.3 mph /  27.8 km/h 44 % 0 in /  0.0 mm 584.0 W/m2 FEW
11:07 51.4 °F /  10.8 °C 29.1 °F /  -1.6 °C 29.7 in /  1006.3 hPa SSW 15.9 mph /  25.6 km/h 17.3 mph /  27.8 km/h 42 % 0 in /  0.0 mm 483.0 W/m2 FEW
11:12 51.4 °F /  10.8 °C 29.1 °F /  -1.6 °C 29.7 in /  1006.3 hPa SW 14.1 mph /  22.7 km/h 19.6 mph /  31.5 km/h 42 % 0 in /  0.0 mm 199.0 W/m2 FEW
11:17 51.1 °F /  10.6 °C 29.5 °F /  -1.4 °C 29.7 in /  1006.0 hPa SSW 11.6 mph /  18.7 km/h 17 mph /  27.4 km/h 43 % 0 in /  0.0 mm 190.0 W/m2 FEW
11:22 51.6 °F /  10.9 °C 29.8 °F /  -1.2 °C 29.7 in /  1006.0 hPa South 13.2 mph /  21.2 km/h 16.1 mph /  25.9 km/h 43 % 0 in /  0.0 mm 552.0 W/m2 FEW
Friend Weather
Compliments of Weather Underground - 1.25 mb